createdAt,value
2019-02-23T00:02:31.511Z,100498.00
2019-02-23T00:07:37.503Z,100505.00
2019-02-23T00:12:44.522Z,100501.00
2019-02-23T00:17:51.364Z,100504.00
2019-02-23T00:22:58.288Z,100496.00
2019-02-23T00:28:25.509Z,100491.00
2019-02-23T00:33:32.155Z,100495.00
2019-02-23T00:38:39.075Z,100486.00
2019-02-23T00:43:46.116Z,100495.00
2019-02-23T00:48:52.989Z,100502.00
2019-02-23T00:53:59.947Z,100500.00
2019-02-23T00:59:06.822Z,100505.00
2019-02-23T01:04:13.727Z,100505.00
2019-02-23T01:09:20.638Z,100510.00
2019-02-23T01:14:26.630Z,100511.00
2019-02-23T01:19:32.632Z,100520.00
2019-02-23T01:24:39.567Z,100510.00
2019-02-23T01:29:46.442Z,100490.00
2019-02-23T01:34:53.363Z,100484.00
2019-02-23T01:40:01.298Z,100485.00
2019-02-23T01:45:30.019Z,100493.00
2019-02-23T01:50:36.956Z,100492.00
2019-02-23T01:55:43.842Z,100482.00
2019-02-23T02:00:50.780Z,100460.00
2019-02-23T02:05:57.746Z,100455.00
2019-02-23T02:11:04.992Z,100449.00
2019-02-23T02:16:11.554Z,100438.00
2019-02-23T02:21:18.132Z,100419.00
2019-02-23T02:26:24.136Z,100426.00
2019-02-23T02:31:30.825Z,100414.00
2019-02-23T02:36:57.990Z,100433.00
2019-02-23T02:42:04.578Z,100414.00
2019-02-23T02:47:11.395Z,100406.00
2019-02-23T02:52:18.340Z,100410.00
2019-02-23T02:57:24.334Z,100413.00
2019-02-23T03:02:32.580Z,100404.00
2019-02-23T03:07:38.680Z,100404.00
2019-02-23T03:12:57.135Z,100407.00
2019-02-23T03:18:15.786Z,100413.00
2019-02-23T03:23:22.601Z,100408.00
2019-02-23T03:28:28.541Z,100402.00
2019-02-23T03:33:34.573Z,100399.00
2019-02-23T03:38:41.542Z,100396.00
2019-02-23T03:43:48.123Z,100405.00
2019-02-23T03:49:13.396Z,100404.00
2019-02-23T03:54:20.343Z,100409.00
2019-02-23T03:59:26.295Z,100388.00
2019-02-23T04:04:33.313Z,100397.00
2019-02-23T04:09:40.081Z,100410.00
2019-02-23T04:14:59.181Z,100405.00
2019-02-23T04:20:08.283Z,100401.00
2019-02-23T04:25:15.023Z,100417.00
2019-02-23T04:30:21.733Z,100396.00
2019-02-23T04:35:27.870Z,100403.00
2019-02-23T04:40:33.899Z,100391.00
2019-02-23T04:45:40.116Z,100373.00
2019-02-23T04:50:58.866Z,100354.00
2019-02-23T04:56:05.906Z,100370.00
2019-02-23T05:01:33.247Z,100341.00
2019-02-23T05:06:40.297Z,100336.00
2019-02-23T05:11:47.187Z,100360.00
2019-02-23T05:16:54.076Z,100361.00
2019-02-23T05:22:00.905Z,100366.00
2019-02-23T05:27:07.973Z,100368.00
2019-02-23T05:32:14.924Z,100388.00
2019-02-23T05:37:22.023Z,100403.00
2019-02-23T05:42:28.012Z,100402.00
2019-02-23T05:47:34.013Z,100406.00
2019-02-23T05:52:41.065Z,100392.00
2019-02-23T05:57:47.082Z,100405.00
2019-02-23T06:02:53.072Z,100404.00
2019-02-23T06:08:00.111Z,100420.00
2019-02-23T06:13:07.431Z,100427.00
2019-02-23T06:18:14.575Z,100408.00
2019-02-23T06:23:21.692Z,100417.00
2019-02-23T06:28:27.927Z,100424.00
2019-02-23T06:33:33.888Z,100412.00
2019-02-23T06:38:40.877Z,100417.00
2019-02-23T06:44:06.144Z,100430.00
2019-02-23T06:49:12.838Z,100447.00
2019-02-23T06:54:19.728Z,100450.00
2019-02-23T06:59:25.864Z,100459.00
2019-02-23T07:04:32.090Z,100473.00
2019-02-23T07:09:38.141Z,100482.00
2019-02-23T07:15:05.776Z,100495.00
2019-02-23T07:20:13.108Z,100515.00
2019-02-23T07:25:20.060Z,100539.00
2019-02-23T07:30:26.058Z,100513.00
2019-02-23T07:35:32.661Z,100521.00
2019-02-23T07:40:39.567Z,100525.00
2019-02-23T07:45:46.472Z,100527.00
2019-02-23T07:50:53.359Z,100549.00
2019-02-23T07:56:00.042Z,100532.00
2019-02-23T08:01:06.763Z,100537.00
2019-02-23T08:06:13.297Z,100542.00
2019-02-23T08:11:20.610Z,100546.00
2019-02-23T08:16:26.605Z,100559.00
2019-02-23T08:21:32.611Z,100563.00
2019-02-23T08:26:39.524Z,100571.00
2019-02-23T08:31:46.724Z,100568.00
2019-02-23T08:36:54.030Z,100580.00
2019-02-23T08:42:01.149Z,100597.00
2019-02-23T08:47:07.719Z,100587.00
2019-02-23T08:52:14.973Z,100610.00
2019-02-23T08:57:21.852Z,100612.00
2019-02-23T09:02:27.895Z,100603.00
2019-02-23T09:07:33.909Z,100588.00
2019-02-23T09:12:40.084Z,100560.00
2019-02-23T09:17:46.950Z,100537.00
2019-02-23T09:23:00.144Z,100550.00
2019-02-23T09:28:03.690Z,100549.00
2019-02-23T09:33:10.627Z,100536.00
2019-02-23T09:38:17.495Z,100548.00
2019-02-23T09:43:36.271Z,100540.00
2019-02-23T09:48:42.823Z,100535.00
2019-02-23T09:53:49.401Z,100544.00
2019-02-23T09:58:56.338Z,100541.00
2019-02-23T10:04:03.003Z,100535.00
2019-02-23T10:09:10.374Z,100527.00
2019-02-23T10:14:17.628Z,100536.00
2019-02-23T10:19:23.589Z,100533.00
2019-02-23T10:24:31.681Z,100519.00
2019-02-23T10:29:37.632Z,100520.00
2019-02-23T10:34:44.580Z,100520.00
2019-02-23T10:39:51.792Z,100517.00
2019-02-23T10:44:58.557Z,100492.00
2019-02-23T10:50:08.933Z,100470.00
2019-02-23T10:55:16.552Z,100466.00
2019-02-23T11:00:23.227Z,100459.00
2019-02-23T11:05:30.717Z,100464.00
2019-02-23T11:10:37.813Z,100451.00
2019-02-23T11:15:45.002Z,100454.00
2019-02-23T11:21:03.972Z,100444.00
2019-02-23T11:26:11.733Z,100433.00
2019-02-23T11:31:18.430Z,100418.00
2019-02-23T11:36:24.538Z,100412.00
2019-02-23T11:41:31.401Z,100411.00
2019-02-23T11:46:38.934Z,100406.00
2019-02-23T11:51:45.910Z,100424.00
2019-02-23T11:56:52.947Z,100415.00
2019-02-23T12:01:59.832Z,100409.00
2019-02-23T12:07:07.264Z,100407.00
2019-02-23T12:12:14.150Z,100393.00
2019-02-23T12:17:21.084Z,100393.00
2019-02-23T12:22:27.093Z,100375.00
2019-02-23T12:27:33.554Z,100364.00
2019-02-23T12:32:40.752Z,100373.00
2019-02-23T12:37:48.872Z,100358.00
2019-02-23T12:42:55.852Z,100353.00
2019-02-23T12:48:03.240Z,100342.00
2019-02-23T12:53:30.996Z,100347.00
2019-02-23T12:58:38.283Z,100348.00
2019-02-23T13:04:03.654Z,100345.00
2019-02-23T13:09:24.183Z,100335.00
2019-02-23T13:14:53.909Z,100346.00
2019-02-23T13:20:40.819Z,100359.00
2019-02-23T13:26:03.485Z,100354.00
2019-02-23T13:31:51.878Z,100370.00
2019-02-23T13:37:23.544Z,100368.00
2019-02-23T13:42:56.904Z,100386.00
2019-02-23T13:48:50.801Z,100372.00
2019-02-23T13:54:20.640Z,100372.00
2019-02-23T13:59:36.996Z,100371.00
2019-02-23T14:05:28.234Z,100392.00
2019-02-23T14:11:05.720Z,100376.00
2019-02-23T14:16:28.430Z,100400.00
2019-02-23T14:22:13.858Z,100401.00
2019-02-23T14:28:02.756Z,100399.00
2019-02-23T14:33:31.132Z,100384.00
2019-02-23T14:39:17.875Z,100385.00
2019-02-23T14:44:58.881Z,100379.00
2019-02-23T14:50:59.303Z,100385.00
2019-02-23T14:56:50.882Z,100365.00
2019-02-23T15:02:20.078Z,100352.00
2019-02-23T15:08:00.661Z,100341.00
2019-02-23T15:13:59.549Z,100325.00
2019-02-23T15:19:43.734Z,100310.00
2019-02-23T15:25:13.449Z,100307.00
2019-02-23T15:30:36.316Z,100302.00
2019-02-23T15:36:21.562Z,100309.00
2019-02-23T15:42:14.590Z,100301.00
2019-02-23T15:47:48.825Z,100303.00
2019-02-23T15:52:55.550Z,100303.00
2019-02-23T15:58:02.405Z,100316.00
2019-02-23T16:03:09.051Z,100308.00
2019-02-23T16:08:16.220Z,100312.00
2019-02-23T16:13:23.046Z,100300.00
2019-02-23T16:18:28.983Z,100302.00
2019-02-23T16:23:35.738Z,100325.00
2019-02-23T16:28:42.752Z,100320.00
2019-02-23T16:33:49.806Z,100319.00
2019-02-23T16:38:56.766Z,100335.00
2019-02-23T16:44:03.462Z,100326.00
2019-02-23T16:49:30.848Z,100339.00
2019-02-23T16:54:37.702Z,100321.00
2019-02-23T17:00:06.125Z,100319.00
2019-02-23T17:05:14.833Z,100335.00
2019-02-23T17:10:21.839Z,100346.00
2019-02-23T17:15:28.015Z,100353.00
2019-02-23T17:20:56.023Z,100335.00
2019-02-23T17:26:04.462Z,100335.00
2019-02-23T17:31:10.976Z,100347.00
2019-02-23T17:36:18.045Z,100348.00
2019-02-23T17:41:23.976Z,100346.00
2019-02-23T17:46:43.283Z,100335.00
2019-02-23T17:51:50.401Z,100337.00
2019-02-23T17:56:57.237Z,100332.00
2019-02-23T18:02:04.162Z,100326.00
2019-02-23T18:07:10.636Z,100323.00
2019-02-23T18:12:37.496Z,100326.00
2019-02-23T18:17:43.401Z,100335.00
2019-02-23T18:22:49.409Z,100325.00
2019-02-23T18:27:56.570Z,100318.00
2019-02-23T18:33:03.409Z,100312.00
2019-02-23T18:38:10.322Z,100303.00
2019-02-23T18:43:17.142Z,100316.00
2019-02-23T18:48:23.101Z,100309.00
2019-02-23T18:53:29.056Z,100305.00
2019-02-23T18:58:35.545Z,100299.00
2019-02-23T19:03:43.631Z,100298.00
2019-02-23T19:08:50.176Z,100305.00
2019-02-23T19:13:56.670Z,100304.00
2019-02-23T19:19:04.238Z,100292.00
2019-02-23T19:24:10.839Z,100287.00
2019-02-23T19:29:17.289Z,100302.00
2019-02-23T19:34:23.404Z,100313.00
2019-02-23T19:39:29.331Z,100311.00
2019-02-23T19:44:35.332Z,100310.00
2019-02-23T19:49:41.362Z,100306.00
2019-02-23T19:54:48.108Z,100313.00
2019-02-23T20:00:15.884Z,100304.00
2019-02-23T20:05:22.759Z,100309.00
2019-02-23T20:10:28.786Z,100296.00
2019-02-23T20:15:34.728Z,100295.00
2019-02-23T20:20:40.625Z,100293.00
2019-02-23T20:25:47.512Z,100295.00
2019-02-23T20:30:54.401Z,100294.00
2019-02-23T20:36:01.059Z,100296.00
2019-02-23T20:41:07.944Z,100295.00
2019-02-23T20:46:26.884Z,100285.00
2019-02-23T20:51:32.963Z,100288.00
2019-02-23T20:57:04.035Z,100281.00
2019-02-23T21:02:08.022Z,100294.00
2019-02-23T21:07:14.871Z,100279.00
2019-02-23T21:12:22.065Z,100277.00
2019-02-23T21:17:28.053Z,100282.00
2019-02-23T21:22:34.008Z,100268.00
2019-02-23T21:27:40.615Z,100279.00
2019-02-23T21:32:47.128Z,100272.00
2019-02-23T21:37:53.600Z,100272.00
2019-02-23T21:43:00.203Z,100278.00
2019-02-23T21:48:06.624Z,100264.00
2019-02-23T21:53:13.077Z,100272.00
2019-02-23T21:58:19.643Z,100266.00
2019-02-23T22:03:25.571Z,100263.00
2019-02-23T22:08:31.538Z,100254.00
2019-02-23T22:13:37.478Z,100252.00
2019-02-23T22:19:05.039Z,100244.00
2019-02-23T22:24:11.617Z,100254.00
2019-02-23T22:29:18.044Z,100241.00
2019-02-23T22:34:23.991Z,100237.00
2019-02-23T22:39:29.900Z,100236.00
2019-02-23T22:44:35.871Z,100244.00
2019-02-23T22:49:41.682Z,100241.00
2019-02-23T22:54:48.585Z,100245.00
2019-02-23T22:59:55.472Z,100231.00
2019-02-23T23:05:02.235Z,100240.00
2019-02-23T23:10:11.665Z,100226.00
2019-02-23T23:15:18.821Z,100225.00
2019-02-23T23:20:24.679Z,100236.00
2019-02-23T23:25:32.596Z,100237.00
2019-02-23T23:30:38.960Z,100231.00
2019-02-23T23:35:45.232Z,100235.00
2019-02-23T23:40:52.023Z,100214.00
2019-02-23T23:45:59.052Z,100222.00
2019-02-23T23:51:05.807Z,100215.00
2019-02-23T23:56:13.504Z,100204.00
